Time;durP1;ratioP1;P1;durP2;ratioP2;P2;SDS_P1;SDS_P2;PMS_P1;PMS_P2;Temp;Humidity;BMP_temperature;BMP_pressure;BME280_temperature;BME280_humidity;BME280_pressure;Samples;Min_cycle;Max_cycle;Signal;HPM_P1;HPM_P2
2022/12/22 03:26:38;;;;;;;196.30;70.03;;;8.00;99.90;;;;;;5034100;28;20060;-80
2022/12/22 03:29:04;;;;;;;200.43;75.73;;;7.80;99.90;;;;;;5044550;28;20419;-76
2022/12/22 03:31:30;;;;;;;210.67;70.17;;;7.80;99.90;;;;;;5046809;28;20110;-77
2022/12/22 03:33:55;;;;;;;195.77;71.40;;;7.80;99.90;;;;;;5046970;28;20052;-77
2022/12/22 03:36:21;;;;;;;199.07;68.97;;;7.80;99.90;;;;;;5037370;28;20056;-77
2022/12/22 03:38:46;;;;;;;197.67;68.57;;;7.70;99.90;;;;;;5043378;28;20049;-76
2022/12/22 03:46:29;;;;;;;198.27;66.77;;;7.80;99.90;;;;;;5047134;28;20124;-80
2022/12/22 03:46:42;;;;;;;161.20;66.10;;;7.70;99.90;;;;;;5038472;28;20059;-76
2022/12/22 03:49:10;;;;;;;159.07;63.20;;;7.70;99.90;;;;;;5049378;28;20053;-76
2022/12/22 03:51:39;;;;;;;150.00;64.30;;;7.70;99.90;;;;;;5051319;28;20036;-77
2022/12/22 03:54:06;;;;;;;164.27;63.93;;;7.60;99.90;;;;;;5049787;28;20045;-77
2022/12/22 03:56:31;;;;;;;157.13;63.00;;;7.70;99.90;;;;;;5038046;28;20041;-75
2022/12/22 03:58:57;;;;;;;172.33;61.83;;;7.70;99.90;;;;;;5031166;28;20518;-77
2022/12/22 04:01:23;;;;;;;160.23;62.03;;;7.70;99.90;;;;;;5049494;28;20179;-76
2022/12/22 04:03:49;;;;;;;168.93;62.77;;;7.70;99.90;;;;;;5050929;28;20045;-76
2022/12/22 04:06:16;;;;;;;159.27;59.63;;;7.60;99.90;;;;;;5041855;28;20049;-76
2022/12/22 04:08:41;;;;;;;175.20;61.53;;;7.60;99.90;;;;;;5044308;28;20418;-75
2022/12/22 04:13:54;;;;;;;153.10;57.43;;;7.50;99.90;;;;;;5048059;28;20422;-77
2022/12/22 04:16:19;;;;;;;154.53;57.37;;;7.70;99.90;;;;;;5040528;28;20053;-78
2022/12/22 04:18:45;;;;;;;146.90;55.10;;;7.60;99.90;;;;;;5045418;28;20044;-76
2022/12/22 04:21:11;;;;;;;164.93;55.47;;;7.60;99.90;;;;;;5050064;28;20079;-76
2022/12/22 04:23:36;;;;;;;157.90;58.40;;;7.60;99.90;;;;;;5048608;28;20136;-76
2022/12/22 04:26:02;;;;;;;153.17;56.60;;;7.60;99.90;;;;;;5050371;28;20047;-75
2022/12/22 04:28:27;;;;;;;151.97;56.87;;;7.50;99.90;;;;;;5035176;28;20084;-76
2022/12/22 04:30:53;;;;;;;182.00;58.80;;;7.50;99.90;;;;;;5048948;28;20048;-76
2022/12/22 04:33:19;;;;;;;162.13;58.97;;;7.50;99.90;;;;;;5049755;28;20120;-76
2022/12/22 04:35:44;;;;;;;152.27;56.97;;;7.50;99.90;;;;;;5050904;28;20071;-75
2022/12/22 04:38:10;;;;;;;169.13;71.83;;;7.50;99.90;;;;;;5035347;28;20072;-76
2022/12/22 04:40:36;;;;;;;156.50;58.83;;;7.50;99.90;;;;;;5049994;28;20045;-76
2022/12/22 04:43:02;;;;;;;163.13;58.37;;;7.60;99.90;;;;;;5048941;28;20080;-75
2022/12/22 04:45:27;;;;;;;153.43;57.20;;;7.60;99.90;;;;;;5050990;28;20071;-76
2022/12/22 04:47:53;;;;;;;199.67;57.63;;;7.50;99.90;;;;;;5034522;28;20131;-76
2022/12/22 04:50:19;;;;;;;177.80;56.23;;;7.50;99.90;;;;;;5050784;28;20122;-76
2022/12/22 04:52:45;;;;;;;179.57;58.33;;;7.40;99.90;;;;;;5049600;28;20076;-76
2022/12/22 04:55:10;;;;;;;155.23;55.37;;;7.50;99.90;;;;;;5048826;28;20135;-76
2022/12/22 04:57:36;;;;;;;164.93;57.50;;;7.40;99.90;;;;;;5033975;28;20148;-76
2022/12/22 05:00:03;;;;;;;157.60;54.20;;;7.50;99.90;;;;;;5050531;28;20443;-76
2022/12/22 05:02:28;;;;;;;170.23;60.37;;;7.40;99.90;;;;;;5045052;28;20375;-76
2022/12/22 05:04:54;;;;;;;158.73;56.20;;;7.40;99.90;;;;;;5043862;28;20107;-76
2022/12/22 05:07:20;;;;;;;175.77;58.53;;;7.30;99.90;;;;;;5031598;28;20079;-75
2022/12/22 05:09:45;;;;;;;186.40;65.10;;;7.40;99.90;;;;;;5046402;28;20487;-75
2022/12/22 05:15:09;;;;;;;177.70;55.40;;;7.40;99.90;;;;;;5036050;28;20510;-76
2022/12/22 05:17:35;;;;;;;217.93;62.17;;;7.30;99.90;;;;;;5036565;28;20047;-75
2022/12/22 05:20:01;;;;;;;195.60;62.90;;;7.40;99.90;;;;;;5054482;28;20125;-75
2022/12/22 05:22:27;;;;;;;216.10;62.17;;;7.30;99.90;;;;;;5048817;28;20033;-77
2022/12/22 05:24:52;;;;;;;191.43;63.57;;;7.30;99.90;;;;;;5048001;28;20073;-77
2022/12/22 05:27:18;;;;;;;203.77;59.47;;;7.20;99.90;;;;;;5033046;28;20110;-77
2022/12/22 05:29:44;;;;;;;206.60;60.33;;;7.20;99.90;;;;;;5049585;28;20045;-76
2022/12/22 05:32:09;;;;;;;223.77;59.10;;;7.20;99.90;;;;;;5048388;28;20076;-76
2022/12/22 05:34:35;;;;;;;184.63;57.90;;;7.10;99.90;;;;;;5048384;28;20049;-76
2022/12/22 05:37:00;;;;;;;232.13;61.07;;;7.30;99.90;;;;;;5034685;28;20055;-76
2022/12/22 05:39:26;;;;;;;214.73;65.77;;;7.10;99.90;;;;;;5049414;28;20040;-76
2022/12/22 05:41:52;;;;;;;231.83;59.37;;;7.10;99.90;;;;;;5049233;28;20491;-76
2022/12/22 05:44:17;;;;;;;224.90;60.73;;;7.30;99.90;;;;;;5048701;28;20083;-80
2022/12/22 05:46:43;;;;;;;190.97;59.23;;;7.10;99.90;;;;;;5035675;28;20053;-76
2022/12/22 05:49:09;;;;;;;175.70;54.77;;;7.10;99.90;;;;;;5047404;28;20094;-75
2022/12/22 05:51:34;;;;;;;179.37;52.53;;;7.00;99.90;;;;;;5049159;28;20128;-76
2022/12/22 05:54:00;;;;;;;182.17;54.17;;;7.00;99.90;;;;;;5048502;28;20426;-76
2022/12/22 05:56:26;;;;;;;248.13;55.47;;;7.00;99.90;;;;;;5036137;28;21119;-76
2022/12/22 05:58:51;;;;;;;197.97;54.47;;;6.60;99.90;;;;;;5044568;28;20073;-79
2022/12/22 06:01:17;;;;;;;255.57;53.70;;;6.80;99.90;;;;;;5048847;28;20036;-76
2022/12/22 06:03:42;;;;;;;209.50;49.27;;;6.60;99.90;;;;;;5049125;28;20057;-78
2022/12/22 06:06:09;;;;;;;246.30;49.77;;;6.60;99.90;;;;;;5041666;28;20053;-81
2022/12/22 06:08:35;;;;;;;226.23;50.67;;;6.40;99.90;;;;;;5040226;28;20309;-76
2022/12/22 06:11:01;;;;;;;157.33;48.53;;;6.40;99.90;;;;;;5047513;28;20534;-78
2022/12/22 06:13:26;;;;;;;171.83;50.30;;;6.40;99.90;;;;;;5047522;28;20047;-75
2022/12/22 06:15:52;;;;;;;175.30;48.80;;;6.40;99.90;;;;;;5049292;28;20060;-75
2022/12/22 06:18:18;;;;;;;151.80;49.77;;;6.30;99.90;;;;;;5032619;28;20407;-77
2022/12/22 06:20:47;;;;;;;169.07;49.80;;;6.30;99.90;;;;;;5048825;28;20041;-77
2022/12/22 06:23:12;;;;;;;166.23;52.40;;;6.30;99.90;;;;;;5044359;28;20094;-77
2022/12/22 06:25:38;;;;;;;200.23;51.67;;;6.20;99.90;;;;;;5047848;28;20045;-76
2022/12/22 06:28:04;;;;;;;194.57;51.47;;;6.30;99.90;;;;;;5031189;28;20502;-75
2022/12/22 06:30:30;;;;;;;203.63;52.20;;;6.20;99.90;;;;;;5048659;28;20049;-75
2022/12/22 06:32:55;;;;;;;199.50;55.63;;;6.20;99.90;;;;;;5047657;28;20329;-76
2022/12/22 06:35:21;;;;;;;262.57;61.17;;;6.30;99.90;;;;;;5041375;28;20048;-75
2022/12/22 06:37:46;;;;;;;329.63;72.53;;;6.30;99.90;;;;;;5030157;28;20107;-79
2022/12/22 06:40:12;;;;;;;433.03;80.43;;;6.30;99.90;;;;;;5045246;28;20126;-76
2022/12/22 06:45:22;;;;;;;464.43;76.20;;;6.40;99.90;;;;;;5044621;28;20064;-76
2022/12/22 06:47:48;;;;;;;483.57;74.20;;;6.30;99.90;;;;;;5027933;28;20410;-76
2022/12/22 06:50:14;;;;;;;342.10;72.43;;;6.40;99.90;;;;;;5044981;28;20041;-76
2022/12/22 06:52:39;;;;;;;398.53;66.90;;;6.40;99.90;;;;;;5042819;28;20148;-77
2022/12/22 06:55:06;;;;;;;388.40;68.53;;;6.50;99.90;;;;;;5044738;28;20089;-76
2022/12/22 06:57:31;;;;;;;233.53;58.40;;;6.30;99.90;;;;;;5030729;28;20566;-76
2022/12/22 06:59:57;;;;;;;219.13;56.17;;;6.40;99.90;;;;;;5046871;28;20154;-76
2022/12/22 07:02:23;;;;;;;195.27;52.10;;;6.30;99.90;;;;;;5046139;28;20384;-79
2022/12/22 07:04:48;;;;;;;170.87;56.73;;;6.30;99.90;;;;;;5048463;28;20071;-76
2022/12/22 07:07:14;;;;;;;150.80;47.47;;;6.30;99.90;;;;;;5032304;28;20402;-75
2022/12/22 07:09:40;;;;;;;135.77;56.27;;;6.20;99.90;;;;;;5046823;28;20153;-76
2022/12/22 07:12:05;;;;;;;140.73;45.87;;;6.30;99.90;;;;;;5043354;28;20052;-76
2022/12/22 07:14:31;;;;;;;128.20;44.50;;;6.20;99.90;;;;;;5047592;28;20132;-76
2022/12/22 07:16:57;;;;;;;131.80;47.00;;;6.20;99.90;;;;;;5031827;28;20049;-78
2022/12/22 07:19:22;;;;;;;148.80;46.97;;;6.20;99.90;;;;;;5050730;28;20075;-76
2022/12/22 07:21:49;;;;;;;138.23;42.87;;;6.10;99.90;;;;;;5050394;28;20067;-76
2022/12/22 07:24:21;;;;;;;167.40;45.13;;;6.10;99.90;;;;;;5051477;28;20675;-76
2022/12/22 07:26:47;;;;;;;184.03;47.80;;;6.10;99.90;;;;;;5036654;28;20060;-76
2022/12/22 07:29:13;;;;;;;191.37;51.20;;;6.20;99.90;;;;;;5049858;28;20041;-77
2022/12/22 07:31:39;;;;;;;189.90;52.13;;;6.10;99.90;;;;;;5050415;28;20124;-75
2022/12/22 07:34:04;;;;;;;186.23;52.17;;;6.00;99.90;;;;;;5050127;28;20064;-76
2022/12/22 07:36:30;;;;;;;185.40;39.87;;;6.00;99.90;;;;;;5020563;28;20436;-80
2022/12/22 07:38:56;;;;;;;191.40;49.43;;;6.00;99.90;;;;;;5048931;28;20439;-77
2022/12/22 07:44:06;;;;;;;231.13;44.03;;;5.80;99.90;;;;;;5049050;28;20059;-77
2022/12/22 07:46:35;;;;;;;221.00;45.97;;;5.90;99.90;;;;;;5038204;28;20045;-76
2022/12/22 07:51:46;;;;;;;218.97;43.10;;;5.90;99.90;;;;;;5051588;28;20183;-76
2022/12/22 07:54:14;;;;;;;185.07;43.27;;;5.90;99.90;;;;;;5051146;28;20526;-76
2022/12/22 07:56:40;;;;;;;177.73;41.27;;;5.80;99.90;;;;;;5038222;28;20053;-76
2022/12/22 07:59:07;;;;;;;182.63;42.30;;;5.80;99.90;;;;;;5049444;28;20131;-76
2022/12/22 08:01:33;;;;;;;181.20;44.87;;;5.70;99.90;;;;;;5050379;28;20049;-76
2022/12/22 08:03:59;;;;;;;205.63;45.83;;;5.90;99.90;;;;;;5042482;28;20056;-76
2022/12/22 08:06:25;;;;;;;209.90;47.03;;;5.70;99.90;;;;;;5018059;28;20057;-75
2022/12/22 08:08:51;;;;;;;199.67;43.80;;;5.70;99.90;;;;;;5043346;28;20073;-76
2022/12/22 08:11:17;;;;;;;212.70;44.77;;;5.60;99.90;;;;;;5048053;28;20044;-76
2022/12/22 08:13:43;;;;;;;377.80;53.43;;;5.60;99.90;;;;;;5048238;28;20053;-76
2022/12/22 08:16:12;;;;;;;469.83;53.77;;;5.60;99.90;;;;;;5045080;28;20395;-81
2022/12/22 08:18:39;;;;;;;412.07;57.67;;;5.70;99.90;;;;;;5045613;28;20102;-76
2022/12/22 08:21:06;;;;;;;337.23;46.40;;;5.60;99.90;;;;;;5052263;28;20375;-76
2022/12/22 08:23:32;;;;;;;362.37;44.23;;;5.60;99.90;;;;;;5034423;28;20053;-80
2022/12/22 08:26:13;;;;;;;363.63;47.93;;;5.60;99.90;;;;;;5021039;28;20128;-76
2022/12/22 08:28:46;;;;;;;337.67;43.47;;;5.60;99.90;;;;;;5037587;28;20056;-77
2022/12/22 08:31:12;;;;;;;345.77;48.13;;;5.80;99.90;;;;;;5045509;28;20299;-80
2022/12/22 08:33:38;;;;;;;299.47;43.17;;;5.60;99.90;;;;;;5047239;28;20053;-78
2022/12/22 08:36:05;;;;;;;377.33;48.43;;;5.70;99.90;;;;;;5048079;28;20118;-77
2022/12/22 08:38:31;;;;;;;376.30;48.37;;;5.70;99.90;;;;;;5021526;28;20364;-78
2022/12/22 08:40:57;;;;;;;327.60;47.20;;;5.70;99.90;;;;;;5033390;28;20609;-76
2022/12/22 08:43:23;;;;;;;369.30;49.47;;;5.60;99.90;;;;;;5036559;28;20052;-76
2022/12/22 08:45:49;;;;;;;272.73;42.57;;;5.80;99.90;;;;;;5044639;28;20411;-80
2022/12/22 08:48:15;;;;;;;348.93;47.47;;;5.70;99.90;;;;;;5028216;28;20049;-77
2022/12/22 08:50:41;;;;;;;226.67;41.37;;;5.80;99.90;;;;;;5044910;28;20037;-77
2022/12/22 08:53:08;;;;;;;256.50;42.30;;;5.70;99.90;;;;;;5044520;28;20132;-76
2022/12/22 08:55:34;;;;;;;212.80;38.27;;;5.90;99.90;;;;;;5045959;28;20298;-77
2022/12/22 08:58:00;;;;;;;260.83;40.60;;;5.70;99.90;;;;;;5029995;28;20071;-76
2022/12/22 09:00:26;;;;;;;265.13;41.03;;;5.80;99.90;;;;;;5044741;28;20053;-77
2022/12/22 09:02:51;;;;;;;199.50;38.10;;;5.70;99.90;;;;;;5043780;28;20810;-77
2022/12/22 09:05:18;;;;;;;201.80;36.60;;;5.70;99.90;;;;;;5044944;28;20124;-77
2022/12/22 09:07:46;;;;;;;217.97;40.20;;;5.70;99.90;;;;;;5029528;28;20076;-77
2022/12/22 09:10:11;;;;;;;156.17;34.57;;;5.70;99.90;;;;;;5046118;28;20048;-77
2022/12/22 09:12:37;;;;;;;134.33;36.23;;;5.70;99.90;;;;;;5045220;28;20485;-77
2022/12/22 09:15:04;;;;;;;93.23;45.60;;;5.50;99.90;;;;;;5045016;28;20061;-77
2022/12/22 09:17:30;;;;;;;101.17;33.73;;;5.50;99.90;;;;;;5015879;28;20124;-77
2022/12/22 09:19:56;;;;;;;111.93;32.50;;;5.50;99.90;;;;;;5045211;28;20625;-79
2022/12/22 09:22:21;;;;;;;111.77;47.93;;;5.50;99.90;;;;;;5045507;28;20364;-76
2022/12/22 09:24:47;;;;;;;125.00;35.67;;;5.50;99.90;;;;;;5041272;28;20045;-77
2022/12/22 09:27:13;;;;;;;93.00;35.57;;;5.60;99.90;;;;;;5019561;28;20083;-79
2022/12/22 09:29:39;;;;;;;81.13;34.80;;;5.70;99.90;;;;;;5036092;28;20059;-76
2022/12/22 09:32:05;;;;;;;79.67;31.23;;;5.60;99.90;;;;;;5032599;28;20387;-76
2022/12/22 09:34:31;;;;;;;73.53;29.70;;;5.70;99.90;;;;;;5017856;28;20050;-77
2022/12/22 09:36:57;;;;;;;93.20;28.73;;;5.60;99.90;;;;;;5024831;28;20168;-76
2022/12/22 09:39:23;;;;;;;94.00;33.23;;;5.70;99.90;;;;;;5039095;28;20041;-77
2022/12/22 09:41:53;;;;;;;83.83;35.43;;;5.90;99.90;;;;;;5040319;28;20045;-77
2022/12/22 09:44:35;;;;;;;74.53;31.20;;;5.80;99.90;;;;;;5032537;28;20045;-76
2022/12/22 09:47:08;;;;;;;107.53;39.63;;;5.80;99.90;;;;;;5024510;28;20061;-77
2022/12/22 09:49:35;;;;;;;103.00;30.47;;;5.80;99.90;;;;;;5039985;28;20068;-77
2022/12/22 09:52:03;;;;;;;87.07;32.70;;;5.90;99.90;;;;;;5040353;28;20050;-80
2022/12/22 09:54:29;;;;;;;74.97;35.27;;;5.90;99.90;;;;;;5037985;28;20136;-78
2022/12/22 09:56:56;;;;;;;74.03;26.80;;;5.90;99.90;;;;;;5023779;28;20045;-78
2022/12/22 09:59:25;;;;;;;76.27;29.27;;;5.90;99.90;;;;;;5045319;28;20081;-76
2022/12/22 10:02:18;;;;;;;70.30;27.03;;;5.90;99.90;;;;;;5041802;28;20666;-78
2022/12/22 10:04:53;;;;;;;73.23;29.40;;;6.10;99.90;;;;;;5042577;28;20508;-76
2022/12/22 10:07:31;;;;;;;63.57;36.07;;;6.10;99.90;;;;;;5029544;28;20053;-76
2022/12/22 10:10:04;;;;;;;52.20;26.67;;;6.10;99.90;;;;;;5043012;28;20126;-77
2022/12/22 10:12:30;;;;;;;59.43;33.33;;;6.20;99.90;;;;;;5034633;28;20045;-77
2022/12/22 10:14:56;;;;;;;47.43;30.77;;;6.40;99.90;;;;;;5035098;28;20076;-76
2022/12/22 10:17:21;;;;;;;51.33;37.67;;;6.50;99.90;;;;;;5020517;28;20398;-77
2022/12/22 10:19:49;;;;;;;49.43;29.23;;;6.70;99.90;;;;;;5017037;28;20053;-76
2022/12/22 10:22:50;;;;;;;39.20;27.83;;;6.70;99.90;;;;;;5035581;28;20045;-78
2022/12/22 10:25:27;;;;;;;39.57;29.50;;;7.20;99.90;;;;;;5039938;28;20411;-78
2022/12/22 10:27:56;;;;;;;40.67;27.00;;;7.50;99.90;;;;;;5016859;28;20049;-76
2022/12/22 10:30:24;;;;;;;46.10;41.37;;;7.80;99.90;;;;;;5033995;28;20084;-77
2022/12/22 10:33:19;;;;;;;34.73;27.53;;;8.00;99.90;;;;;;5031234;28;20049;-77
2022/12/22 10:35:47;;;;;;;28.43;16.43;;;8.20;99.90;;;;;;5032322;28;20422;-76
2022/12/22 10:38:31;;;;;;;23.07;18.13;;;8.10;99.90;;;;;;5017532;28;20402;-77
2022/12/22 10:41:05;;;;;;;27.17;23.73;;;8.30;99.90;;;;;;5034736;28;20628;-77
2022/12/22 10:43:36;;;;;;;18.07;10.47;;;8.10;99.90;;;;;;5031853;28;20049;-76
2022/12/22 10:46:03;;;;;;;47.95;44.10;;;8.10;99.90;;;;;;5033807;28;20045;-77
2022/12/22 10:48:30;;;;;;;19.17;17.17;;;7.80;99.90;;;;;;5015892;28;20072;-76
2022/12/22 10:50:57;;;;;;;19.70;17.60;;;7.70;99.90;;;;;;5033146;28;20073;-78
2022/12/22 10:53:54;;;;;;;25.30;22.77;;;7.70;99.90;;;;;;5032352;28;20131;-76
2022/12/22 10:56:26;;;;;;;21.20;12.17;;;7.90;99.90;;;;;;5032493;28;20056;-77
2022/12/22 10:58:55;;;;;;;31.93;29.23;;;8.30;99.90;;;;;;5040433;28;20794;-76
2022/12/22 11:01:29;;;;;;;20.97;16.43;;;8.50;99.90;;;;;;5023323;28;20406;-77
2022/12/22 11:03:55;;;;;;;16.53;10.97;;;8.70;99.90;;;;;;5029678;28;20072;-77
2022/12/22 11:06:21;;;;;;;17.90;15.70;;;9.00;99.90;;;;;;5034816;28;20131;-76
2022/12/22 11:08:47;;;;;;;19.80;12.93;;;9.40;99.90;;;;;;5038992;28;20057;-76
2022/12/22 11:11:36;;;;;;;15.90;14.13;;;9.30;99.90;;;;;;5042758;28;20483;-79
2022/12/22 11:14:24;;;;;;;18.70;12.83;;;9.60;99.90;;;;;;5040943;28;20466;-79
2022/12/22 11:17:06;;;;;;;24.77;22.40;;;9.70;99.90;;;;;;5028842;28;20506;-79
2022/12/22 11:19:50;;;;;;;46.97;43.90;;;9.70;99.90;;;;;;5038873;28;20945;-78
2022/12/22 11:22:42;;;;;;;30.13;27.23;;;9.70;99.90;;;;;;5040059;28;20478;-77
2022/12/22 11:25:45;;;;;;;42.95;39.78;;;9.50;99.90;;;;;;5035966;28;20057;-79
2022/12/22 11:28:58;;;;;;;39.10;36.03;;;9.70;99.90;;;;;;5024876;28;20053;-80
2022/12/22 11:31:59;;;;;;;44.97;41.77;;;9.90;99.90;;;;;;5032600;28;20072;-77
2022/12/22 11:34:30;;;;;;;60.50;56.40;;;9.90;99.90;;;;;;5032988;28;20045;-79
2022/12/22 11:37:15;;;;;;;35.00;32.37;;;9.50;99.90;;;;;;5023103;28;20045;-76
2022/12/22 11:39:53;;;;;;;78.20;73.17;;;9.80;99.90;;;;;;5032542;28;20059;-77
2022/12/22 11:42:31;;;;;;;88.70;83.57;;;9.50;99.90;;;;;;5030584;28;20409;-80
2022/12/22 11:45:30;;;;;;;117.97;110.97;;;9.40;99.90;;;;;;5031899;28;20115;-78
2022/12/22 11:48:25;;;;;;;39.23;36.03;;;9.30;99.90;;;;;;5018850;28;20071;-76
2022/12/22 11:50:55;;;;;;;50.20;46.47;;;9.50;99.90;;;;;;5030979;28;20048;-76
2022/12/22 11:53:45;;;;;;;173.03;161.57;;;9.20;99.90;;;;;;5030975;28;20041;-77
2022/12/22 11:56:28;;;;;;;35.03;31.67;;;8.90;99.90;;;;;;5025308;28;20492;-79
2022/12/22 11:59:31;;;;;;;22.77;20.40;;;9.00;99.90;;;;;;5035581;28;20623;-78
2022/12/22 12:02:27;;;;;;;24.17;18.13;;;9.00;99.90;;;;;;5034527;28;20143;-76
2022/12/22 12:05:19;;;;;;;22.97;20.57;;;8.90;99.90;;;;;;5030897;28;20056;-80
2022/12/22 12:07:52;;;;;;;37.03;33.93;;;8.70;99.90;;;;;;5013488;28;21205;-76
2022/12/22 12:10:30;;;;;;;52.50;48.10;;;8.60;99.90;;;;;;5040393;28;20056;-78
2022/12/22 12:13:02;;;;;;;20.23;16.00;;;8.60;99.90;;;;;;5038300;28;20052;-76
2022/12/22 12:15:33;;;;;;;;;;;8.50;99.90;;;;;;5054555;28;20444;-76
2022/12/22 12:18:17;;;;;;;23.30;20.10;;;8.60;99.90;;;;;;5015566;28;19931;-80
2022/12/22 12:21:08;;;;;;;25.83;14.33;;;8.60;99.90;;;;;;5025841;28;20060;-78
2022/12/22 12:23:57;;;;;;;28.53;25.30;;;8.70;99.90;;;;;;5038022;28;20495;-79
2022/12/22 12:26:51;;;;;;;26.40;14.63;;;8.70;99.90;;;;;;5023935;28;20088;-81
2022/12/22 12:29:24;;;;;;;32.47;29.73;;;8.80;99.90;;;;;;5041280;28;20043;-76
2022/12/22 12:32:01;;;;;;;26.60;23.13;;;8.70;99.90;;;;;;5032174;28;20114;-78
2022/12/22 12:34:32;;;;;;;37.60;34.20;;;8.90;99.90;;;;;;5038768;28;20335;-78
2022/12/22 12:37:11;;;;;;;22.00;16.35;;;8.90;99.90;;;;;;5032359;28;20568;-76
2022/12/22 12:40:04;;;;;;;27.83;25.57;;;8.90;99.90;;;;;;5048127;28;20057;-78
2022/12/22 12:42:39;;;;;;;26.77;16.07;;;8.70;99.90;;;;;;5046056;28;20045;-77
2022/12/22 12:45:38;;;;;;;32.37;29.10;;;8.60;99.90;;;;;;5046050;28;20040;-77
2022/12/22 12:48:30;;;;;;;43.83;39.40;;;8.40;99.90;;;;;;5027492;28;20494;-77
2022/12/22 12:50:57;;;;;;;28.33;25.33;;;8.30;99.90;;;;;;5045211;28;20049;-78
2022/12/22 12:53:25;;;;;;;39.73;36.17;;;8.20;99.90;;;;;;5044718;28;20037;-77
2022/12/22 12:55:55;;;;;;;43.00;39.13;;;8.20;99.90;;;;;;5045976;28;20063;-77
2022/12/22 12:58:38;;;;;;;26.10;15.63;;;8.20;99.90;;;;;;5031493;28;20090;-76
2022/12/22 13:01:10;;;;;;;95.80;88.80;;;8.20;99.90;;;;;;5029613;28;20052;-77
2022/12/22 13:03:39;;;;;;;38.27;34.70;;;8.10;99.90;;;;;;5036402;28;20052;-78
2022/12/22 13:06:08;;;;;;;26.50;20.83;;;8.10;99.90;;;;;;5035805;28;20494;-80
2022/12/22 13:09:01;;;;;;;28.17;25.33;;;8.10;99.90;;;;;;5020017;28;20069;-77
2022/12/22 13:11:37;;;;;;;24.33;15.77;;;8.10;99.90;;;;;;5045990;28;20060;-77
2022/12/22 13:14:03;;;;;;;26.97;23.10;;;8.10;99.90;;;;;;5045463;28;20123;-77
2022/12/22 13:16:32;;;;;;;53.70;49.27;;;8.10;99.90;;;;;;5024924;28;20564;-79
2022/12/22 13:19:02;;;;;;;70.90;66.17;;;8.20;99.90;;;;;;5041958;28;20063;-77
2022/12/22 13:21:36;;;;;;;33.63;30.20;;;8.10;99.90;;;;;;5046214;28;20037;-78
2022/12/22 13:24:21;;;;;;;33.37;30.03;;;8.10;99.90;;;;;;5045894;28;20049;-77
2022/12/22 13:26:49;;;;;;;27.27;21.77;;;8.10;99.90;;;;;;5028930;28;20621;-77
2022/12/22 13:29:24;;;;;;;47.20;42.73;;;8.10;99.90;;;;;;5046632;28;20110;-79
2022/12/22 13:32:32;;;;;;;68.70;63.57;;;8.10;99.90;;;;;;5045617;28;20080;-78
2022/12/22 13:35:10;;;;;;;29.13;20.17;;;8.10;99.90;;;;;;5043895;28;20269;-76
2022/12/22 13:37:45;;;;;;;48.43;44.47;;;8.10;99.90;;;;;;5029912;28;20345;-77
2022/12/22 13:40:24;;;;;;;30.47;26.63;;;8.10;99.90;;;;;;5027280;28;20056;-78
2022/12/22 13:42:53;;;;;;;27.47;24.00;;;8.10;99.90;;;;;;5040185;28;20057;-76
2022/12/22 13:45:39;;;;;;;30.70;27.57;;;8.10;99.90;;;;;;5045509;28;20045;-81
2022/12/22 13:48:31;;;;;;;27.23;24.30;;;8.10;99.90;;;;;;5031822;28;20498;-77
2022/12/22 13:51:03;;;;;;;27.10;23.87;;;8.10;99.90;;;;;;5042686;28;20489;-80
2022/12/22 13:53:46;;;;;;;27.33;22.13;;;8.10;99.90;;;;;;5048150;28;20049;-78
2022/12/22 13:56:16;;;;;;;30.67;26.77;;;8.10;99.90;;;;;;5041261;28;20399;-78
2022/12/22 13:58:46;;;;;;;45.27;40.93;;;8.10;99.90;;;;;;5043414;28;20103;-77
2022/12/22 14:01:18;;;;;;;37.00;33.50;;;8.10;99.90;;;;;;5049517;28;20107;-78
2022/12/22 14:03:48;;;;;;;;;;;8.20;99.90;;;;;;5047050;28;20063;-78
2022/12/22 14:06:25;;;;;;;28.87;24.70;;;8.20;99.90;;;;;;5039793;28;19920;-75
2022/12/22 14:08:51;;;;;;;27.93;21.93;;;8.20;99.90;;;;;;5044488;28;20053;-76
2022/12/22 14:11:17;;;;;;;24.67;21.70;;;8.10;99.90;;;;;;5047592;28;20462;-75
2022/12/22 14:13:43;;;;;;;27.70;24.70;;;8.10;99.90;;;;;;5046056;28;20045;-77
2022/12/22 14:16:12;;;;;;;52.20;48.57;;;8.10;99.90;;;;;;5041031;28;20135;-76
2022/12/22 14:18:39;;;;;;;54.70;50.73;;;8.20;99.90;;;;;;5041852;28;20053;-79
2022/12/22 14:21:06;;;;;;;37.63;32.90;;;8.20;99.90;;;;;;5048072;28;20045;-77
2022/12/22 14:23:40;;;;;;;49.20;44.70;;;8.20;99.90;;;;;;5045449;28;20052;-77
2022/12/22 14:26:11;;;;;;;29.77;22.97;;;8.30;99.90;;;;;;5047868;28;20453;-81
2022/12/22 14:28:46;;;;;;;63.20;58.22;;;8.20;99.90;;;;;;5037120;28;20048;-81
2022/12/22 14:31:12;;;;;;;28.93;25.87;;;8.20;99.90;;;;;;5048193;28;20125;-77
2022/12/22 14:33:38;;;;;;;51.27;47.10;;;8.30;99.90;;;;;;5046978;28;20131;-76
2022/12/22 14:36:19;;;;;;;30.20;27.13;;;8.20;99.90;;;;;;5046592;28;20045;-76
2022/12/22 14:38:53;;;;;;;27.85;24.00;;;8.20;99.90;;;;;;5040930;28;20533;-76
2022/12/22 14:41:41;;;;;;;30.03;25.07;;;8.20;99.90;;;;;;5048149;28;20052;-76
2022/12/22 14:44:19;;;;;;;33.83;31.07;;;8.20;99.90;;;;;;5046390;28;20102;-77
2022/12/22 14:47:07;;;;;;;32.17;29.20;;;8.10;99.90;;;;;;5032834;28;20551;-78
2022/12/22 14:49:34;;;;;;;23.83;20.87;;;8.20;99.90;;;;;;5045764;28;20135;-76
2022/12/22 14:52:18;;;;;;;30.33;27.53;;;8.10;99.90;;;;;;5047681;28;20045;-76
2022/12/22 14:54:46;;;;;;;28.73;25.80;;;8.10;99.90;;;;;;5044488;28;20233;-77
2022/12/22 14:57:18;;;;;;;38.40;35.37;;;8.10;99.90;;;;;;5030338;28;20320;-77
2022/12/22 15:00:06;;;;;;;25.83;23.07;;;8.10;99.90;;;;;;5044242;28;20497;-77
2022/12/22 15:02:36;;;;;;;21.47;18.30;;;8.10;99.90;;;;;;5046808;28;20052;-77
2022/12/22 15:05:07;;;;;;;18.93;16.07;;;8.10;99.90;;;;;;5047241;28;20075;-76
2022/12/22 15:07:47;;;;;;;22.75;19.05;;;8.00;99.90;;;;;;5031721;28;20037;-77
2022/12/22 15:10:13;;;;;;;25.17;22.83;;;8.10;99.90;;;;;;5048413;28;20053;-76
2022/12/22 15:12:39;;;;;;;22.03;20.03;;;8.10;99.90;;;;;;5046138;28;20502;-78
2022/12/22 15:15:15;;;;;;;25.73;18.53;;;8.10;99.90;;;;;;5048480;28;20397;-79
2022/12/22 15:17:44;;;;;;;21.47;16.37;;;8.10;99.90;;;;;;5013864;28;20044;-76
2022/12/22 15:20:23;;;;;;;20.53;18.60;;;8.00;99.90;;;;;;5048113;28;20063;-76
2022/12/22 15:22:49;;;;;;;21.57;18.50;;;8.00;99.90;;;;;;5043723;28;20060;-79
2022/12/22 15:25:21;;;;;;;23.43;21.27;;;8.00;99.90;;;;;;5048351;28;20052;-77
2022/12/22 15:27:48;;;;;;;19.73;17.17;;;8.00;99.90;;;;;;5013881;28;20049;-77
2022/12/22 15:30:17;;;;;;;23.40;21.20;;;7.90;99.90;;;;;;5048411;28;20056;-77
2022/12/22 15:32:43;;;;;;;23.97;20.47;;;7.90;99.90;;;;;;5046389;28;20426;-77
2022/12/22 15:35:23;;;;;;;24.10;22.10;;;7.80;99.90;;;;;;5047195;28;20053;-76
2022/12/22 15:37:48;;;;;;;26.67;24.33;;;7.80;99.90;;;;;;5032722;28;20049;-77
2022/12/22 15:40:17;;;;;;;22.93;20.77;;;7.80;99.90;;;;;;5050882;28;20434;-76
2022/12/22 15:42:43;;;;;;;21.43;19.37;;;7.70;99.90;;;;;;5050723;28;20045;-76
2022/12/22 15:45:09;;;;;;;18.87;15.17;;;7.70;99.90;;;;;;5052431;28;20119;-76
2022/12/22 15:47:34;;;;;;;15.33;9.10;;;7.60;99.90;;;;;;5030987;28;20072;-78
2022/12/22 15:50:01;;;;;;;15.13;9.07;;;7.50;99.90;;;;;;5035173;28;20140;-78
2022/12/22 15:52:27;;;;;;;15.93;8.37;;;7.50;99.90;;;;;;5041137;28;20562;-76
2022/12/22 15:54:53;;;;;;;20.77;9.90;;;7.40;99.90;;;;;;5043715;28;20425;-76
2022/12/22 15:57:19;;;;;;;19.53;16.03;;;7.40;99.90;;;;;;5026242;28;20521;-76
2022/12/22 15:59:45;;;;;;;18.87;16.87;;;7.40;99.90;;;;;;5040996;28;20041;-76
2022/12/22 16:02:12;;;;;;;16.67;10.13;;;7.30;99.90;;;;;;5039681;28;20033;-76
2022/12/22 16:04:38;;;;;;;22.90;17.57;;;7.30;99.90;;;;;;5041086;28;20430;-77
2022/12/22 16:07:04;;;;;;;29.10;22.23;;;7.20;99.90;;;;;;5025484;28;20387;-74
2022/12/22 16:09:36;;;;;;;27.20;24.33;;;7.20;99.90;;;;;;5038623;28;20053;-78
2022/12/22 16:12:13;;;;;;;30.27;27.33;;;7.20;99.90;;;;;;5040666;28;20138;-77
2022/12/22 16:14:40;;;;;;;23.83;19.63;;;7.20;99.90;;;;;;5040009;28;20037;-77
2022/12/22 16:17:17;;;;;;;25.50;20.27;;;7.20;99.90;;;;;;5023377;28;20056;-75
2022/12/22 16:19:44;;;;;;;34.57;27.93;;;7.10;99.90;;;;;;5038916;28;20061;-77
2022/12/22 16:22:11;;;;;;;21.23;18.67;;;7.10;99.90;;;;;;5041964;28;20082;-76
2022/12/22 16:24:37;;;;;;;23.63;20.43;;;7.10;99.90;;;;;;5046810;28;20063;-77
2022/12/22 16:27:03;;;;;;;31.47;22.77;;;7.10;99.90;;;;;;5032734;28;20566;-77
2022/12/22 16:29:29;;;;;;;30.63;24.13;;;7.10;99.90;;;;;;5046541;28;20463;-75
2022/12/22 16:32:31;;;;;;;29.73;26.53;;;7.10;99.90;;;;;;5046963;28;20499;-77
2022/12/22 16:35:08;;;;;;;29.08;20.58;;;7.00;99.90;;;;;;5044632;28;20041;-76